Time;durP1;ratioP1;P1;durP2;ratioP2;P2;SDS_P1;SDS_P2;PMS_P1;PMS_P2;Temp;Humidity;BMP_temperature;BMP_pressure;BME280_temperature;BME280_humidity;BME280_pressure;Samples;Min_cycle;Max_cycle;Signal;HPM_P1;HPM_P2
2023/12/01 00:00:44;;;;;;;29.33;13.65;;;;;;;-0.73;100.00;100509.72;6115468;23;20019;-79
2023/12/01 00:03:12;;;;;;;31.27;12.82;;;;;;;-0.75;100.00;100508.59;6090915;23;20050;-80
2023/12/01 00:05:39;;;;;;;32.88;12.88;;;;;;;-0.77;100.00;100510.81;6116358;23;20018;-79
2023/12/01 00:08:06;;;;;;;30.70;12.93;;;;;;;-0.81;100.00;100510.81;6117936;23;20019;-79
2023/12/01 00:10:33;;;;;;;24.45;12.73;;;;;;;-0.80;100.00;100517.53;6069118;23;20479;-79
2023/12/01 00:12:59;;;;;;;27.27;13.07;;;;;;;-0.83;100.00;100528.00;6094985;23;20019;-79
2023/12/01 00:15:26;;;;;;;24.73;12.70;;;;;;;-0.85;100.00;100519.75;6092887;23;20023;-79
2023/12/01 00:17:53;;;;;;;29.85;13.13;;;;;;;-0.84;100.00;100518.66;6121942;23;20015;-79
2023/12/01 00:20:21;;;;;;;25.63;12.15;;;;;;;-0.82;100.00;100529.50;6095275;23;20807;-79
2023/12/01 00:22:48;;;;;;;30.17;12.70;;;;;;;-0.82;100.00;100522.41;6091366;23;20079;-79
2023/12/01 00:25:14;;;;;;;24.75;12.80;;;;;;;-0.82;100.00;100532.09;6117762;23;20015;-78
2023/12/01 00:27:42;;;;;;;25.95;12.80;;;;;;;-0.81;100.00;100526.50;6117284;23;20070;-79
2023/12/01 00:30:10;;;;;;;30.88;13.15;;;;;;;-0.79;100.00;100534.72;6118251;23;20019;-79
2023/12/01 00:32:36;;;;;;;27.13;13.18;;;;;;;-0.80;100.00;100525.38;6091515;23;20411;-79
2023/12/01 00:35:03;;;;;;;27.73;12.68;;;;;;;-0.80;100.00;100524.66;6117780;23;20075;-79
2023/12/01 00:37:32;;;;;;;23.35;12.05;;;;;;;-0.79;100.00;100524.25;6092634;23;20067;-79
2023/12/01 00:39:59;;;;;;;22.05;11.25;;;;;;;-0.80;100.00;100532.47;6087516;23;20026;-79
2023/12/01 00:42:26;;;;;;;28.52;11.63;;;;;;;-0.81;100.00;100530.97;6088905;23;20465;-79
2023/12/01 00:44:53;;;;;;;19.73;10.85;;;;;;;-0.83;100.00;100533.97;6090347;23;20011;-79
2023/12/01 00:47:20;;;;;;;18.02;10.52;;;;;;;-0.86;100.00;100539.94;6091489;23;20023;-79
2023/12/01 00:49:47;;;;;;;25.50;10.35;;;;;;;-0.91;100.00;100539.50;6089584;23;20083;-79
2023/12/01 00:52:14;;;;;;;24.58;11.65;;;;;;;-0.91;100.00;100544.75;6087912;23;20007;-79
2023/12/01 00:54:41;;;;;;;21.52;9.45;;;;;;;-0.94;100.00;100554.06;6087576;23;20026;-79
2023/12/01 00:57:08;;;;;;;20.98;10.35;;;;;;;-0.94;100.00;100555.94;6088973;23;20015;-80
2023/12/01 00:59:36;;;;;;;18.63;9.75;;;;;;;-0.94;100.00;100561.16;6062731;23;20034;-80
2023/12/01 01:02:03;;;;;;;20.77;10.57;;;;;;;-0.96;100.00;100561.50;6089344;23;20015;-80
2023/12/01 01:04:29;;;;;;;17.70;9.27;;;;;;;-0.94;100.00;100551.44;6090420;23;20022;-80
2023/12/01 01:06:56;;;;;;;20.05;10.07;;;;;;;-0.98;100.00;100557.78;6098604;23;20015;-80
2023/12/01 01:09:23;;;;;;;23.27;10.65;;;;;;;-0.99;100.00;100558.88;6071830;23;20048;-79
2023/12/01 01:11:50;;;;;;;22.70;9.88;;;;;;;-0.97;100.00;100557.41;6085477;23;20015;-80
2023/12/01 01:14:16;;;;;;;22.35;10.45;;;;;;;-0.96;100.00;100563.38;6083455;23;20038;-80
2023/12/01 01:16:45;;;;;;;21.85;10.82;;;;;;;-0.93;100.00;100570.50;6081929;23;20784;-80
2023/12/01 01:19:12;;;;;;;17.38;8.73;;;;;;;-0.98;100.00;100563.00;6081959;23;20010;-80
2023/12/01 01:21:40;;;;;;;22.30;10.02;;;;;;;-1.01;100.00;100572.31;6082890;23;20019;-80
2023/12/01 01:24:08;;;;;;;15.05;8.73;;;;;;;-1.01;100.00;100580.16;6080874;23;20015;-80
2023/12/01 01:26:35;;;;;;;16.58;8.95;;;;;;;-1.01;100.00;100573.06;6081467;23;20023;-80
2023/12/01 01:29:01;;;;;;;21.85;9.23;;;;;;;-0.95;100.00;100577.94;6083916;23;20063;-80
2023/12/01 01:31:29;;;;;;;18.88;9.90;;;;;;;-0.94;100.00;100576.84;6081068;23;20024;-80
2023/12/01 01:33:56;;;;;;;18.30;8.32;;;;;;;-0.91;100.00;100570.88;6083639;23;20011;-80
2023/12/01 01:36:23;;;;;;;17.83;8.65;;;;;;;-0.87;100.00;100577.63;6079307;23;20083;-80
2023/12/01 01:38:50;;;;;;;18.83;8.30;;;;;;;-0.91;100.00;100570.88;6056707;23;20028;-80
2023/12/01 01:41:16;;;;;;;19.75;9.30;;;;;;;-0.91;100.00;100566.41;6080580;23;20041;-79
2023/12/01 01:43:43;;;;;;;20.85;8.63;;;;;;;-0.88;100.00;100576.13;6081947;23;20062;-79
2023/12/01 01:46:11;;;;;;;25.75;8.98;;;;;;;-0.88;100.00;100575.38;6080624;23;20098;-80
2023/12/01 01:48:38;;;;;;;19.27;9.05;;;;;;;-0.86;100.00;100571.28;6083349;23;20043;-80
2023/12/01 01:51:06;;;;;;;20.15;8.90;;;;;;;-0.87;100.00;100585.47;6058897;23;20079;-80
2023/12/01 01:53:35;;;;;;;21.20;9.27;;;;;;;-0.85;100.00;100585.84;6083778;23;20019;-79
2023/12/01 01:56:02;;;;;;;21.20;8.93;;;;;;;-0.85;100.00;100587.72;6084854;23;20019;-80
2023/12/01 01:58:28;;;;;;;22.40;8.73;;;;;;;-0.84;100.00;100584.00;6081872;23;20465;-80
2023/12/01 02:00:55;;;;;;;22.85;9.00;;;;;;;-0.81;100.00;100583.25;6059078;23;20019;-80
2023/12/01 02:03:23;;;;;;;22.23;9.75;;;;;;;-0.82;100.00;100589.59;6085614;23;20476;-79
2023/12/01 02:05:51;;;;;;;24.38;8.57;;;;;;;-0.85;100.00;100583.25;6087696;23;20019;-80
2023/12/01 02:08:21;;;;;;;25.10;10.15;;;;;;;-0.82;100.00;100587.75;6062201;23;20023;-80
2023/12/01 02:10:49;;;;;;;27.15;9.93;;;;;;;-0.81;100.00;100584.00;6066438;23;20024;-80
2023/12/01 02:13:16;;;;;;;23.65;9.95;;;;;;;-0.79;100.00;100592.22;6089967;23;20075;-80
2023/12/01 02:15:43;;;;;;;27.13;9.93;;;;;;;-0.76;100.00;100588.13;6060368;23;20079;-80
2023/12/01 02:18:27;;;;;;;27.40;10.60;;;;;;;-0.72;100.00;100586.28;6084476;23;20067;-80
2023/12/01 02:20:57;;;;;;;24.60;9.80;;;;;;;-0.70;100.00;100587.41;6085976;23;20075;-80
2023/12/01 02:23:24;;;;;;;27.50;10.38;;;;;;;-0.68;100.00;100581.81;6087580;23;20832;-79
2023/12/01 02:25:50;;;;;;;21.35;9.45;;;;;;;-0.67;100.00;100586.69;6091831;23;20011;-79
2023/12/01 02:28:17;;;;;;;28.80;10.32;;;;;;;-0.67;100.00;100591.91;6088951;23;20100;-80
2023/12/01 02:30:56;;;;;;;23.10;9.52;;;;;;;-0.66;100.00;100595.28;6083479;23;20046;-80
2023/12/01 02:33:24;;;;;;;22.90;8.77;;;;;;;-0.66;100.00;100592.66;6085982;23;20022;-79
2023/12/01 02:35:53;;;;;;;22.40;9.80;;;;;;;-0.61;100.00;100592.31;6082907;23;20071;-80
2023/12/01 02:38:20;;;;;;;25.25;10.50;;;;;;;-0.60;100.00;100590.44;6083214;23;20527;-80
2023/12/01 02:40:50;;;;;;;24.27;9.70;;;;;;;-0.59;100.00;100591.94;6085483;23;20015;-80
2023/12/01 02:43:20;;;;;;;25.97;9.20;;;;;;;-0.58;100.00;100596.06;6084281;23;20011;-79
2023/12/01 02:45:48;;;;;;;22.52;9.88;;;;;;;-0.55;100.00;100596.09;6085112;23;20038;-79
2023/12/01 02:48:16;;;;;;;28.25;10.65;;;;;;;-0.52;100.00;100587.50;6084520;23;20014;-79
2023/12/01 02:50:45;;;;;;;21.08;9.63;;;;;;;-0.50;100.00;100590.50;6085498;23;20015;-79
2023/12/01 02:53:12;;;;;;;31.25;11.77;;;;;;;-0.52;100.00;100589.38;6083840;23;20019;-79
2023/12/01 02:55:46;;;;;;;25.23;10.40;;;;;;;-0.54;100.00;100594.97;6084703;23;20071;-80
2023/12/01 02:58:20;;;;;;;30.23;10.02;;;;;;;-0.52;100.00;100582.28;6084440;23;20018;-80
2023/12/01 03:00:49;;;;;;;35.55;12.15;;;;;;;-0.53;100.00;100580.78;6084963;23;20020;-80
2023/12/01 03:03:16;;;;;;;31.35;12.25;;;;;;;-0.55;100.00;100584.88;6063300;23;20025;-79
2023/12/01 03:05:43;;;;;;;30.52;11.85;;;;;;;-0.55;100.00;100577.78;6088619;23;20019;-80
2023/12/01 03:08:11;;;;;;;32.45;13.38;;;;;;;-0.53;100.00;100586.00;6088211;23;20015;-80
2023/12/01 03:10:37;;;;;;;34.78;13.70;;;;;;;-0.51;100.00;100586.38;6062754;23;20090;-80
2023/12/01 03:13:05;;;;;;;33.90;13.30;;;;;;;-0.48;100.00;100590.13;6087208;23;20043;-80
2023/12/01 03:15:32;;;;;;;29.52;12.38;;;;;;;-0.45;100.00;100589.41;6086078;23;20019;-80
2023/12/01 03:18:01;;;;;;;33.80;12.93;;;;;;;-0.43;100.00;100585.31;6086702;23;20027;-80
2023/12/01 03:20:27;;;;;;;32.42;13.30;;;;;;;-0.40;100.00;100581.22;6086638;23;20015;-80
2023/12/01 03:22:54;;;;;;;31.80;12.73;;;;;;;-0.41;100.00;100583.06;6089212;23;20728;-80
2023/12/01 03:25:24;;;;;;;31.75;12.30;;;;;;;-0.39;100.00;100583.44;6091191;23;20011;-80
2023/12/01 03:27:54;;;;;;;32.50;12.68;;;;;;;-0.38;100.00;100589.41;6093232;23;20060;-80
2023/12/01 03:30:22;;;;;;;28.00;11.38;;;;;;;-0.37;100.00;100583.81;6090603;23;20031;-80
2023/12/01 03:32:52;;;;;;;31.58;13.05;;;;;;;-0.35;100.00;100583.44;6085602;23;20060;-80
2023/12/01 03:35:24;;;;;;;32.80;12.20;;;;;;;-0.34;100.00;100584.94;6084631;23;20016;-80
2023/12/01 03:37:57;;;;;;;27.33;12.02;;;;;;;-0.32;100.00;100592.44;6088215;23;20027;-80
2023/12/01 03:40:26;;;;;;;31.17;11.77;;;;;;;-0.34;100.00;100590.19;6066120;23;20055;-80
2023/12/01 03:42:53;;;;;;;31.05;12.27;;;;;;;-0.32;100.00;100593.19;6091020;23;20823;-80
2023/12/01 03:45:22;;;;;;;31.58;12.23;;;;;;;-0.29;100.00;100591.69;6090200;23;20018;-80
2023/12/01 03:47:51;;;;;;;31.02;11.35;;;;;;;-0.27;100.00;100599.91;6090997;23;20023;-80
2023/12/01 03:50:18;;;;;;;32.05;12.50;;;;;;;-0.28;100.00;100601.78;6090461;23;20033;-80
2023/12/01 03:52:48;;;;;;;29.60;11.88;;;;;;;-0.31;100.00;100607.75;6117704;23;20047;-80
2023/12/01 03:55:15;;;;;;;28.63;11.95;;;;;;;-0.31;100.00;100615.59;6117451;23;20015;-81
2023/12/01 03:57:44;;;;;;;27.02;12.40;;;;;;;-0.30;100.00;100618.97;6092045;23;20019;-80
2023/12/01 04:00:16;;;;;;;28.20;11.77;;;;;;;-0.30;100.00;100622.34;6092538;23;20102;-80
2023/12/01 04:02:46;;;;;;;27.65;10.82;;;;;;;-0.29;100.00;100618.59;6118197;23;20043;-80
2023/12/01 04:05:18;;;;;;;30.55;12.00;;;;;;;-0.28;100.00;100616.75;6093118;23;20070;-80
2023/12/01 04:07:51;;;;;;;32.38;12.52;;;;;;;-0.28;100.00;100619.34;6119714;23;20010;-80
2023/12/01 04:10:25;;;;;;;30.20;12.73;;;;;;;-0.27;100.00;100624.22;6129411;23;20003;-80
2023/12/01 04:12:54;;;;;;;34.72;12.90;;;;;;;-0.26;100.00;100619.72;6101456;23;20007;-80
2023/12/01 04:15:24;;;;;;;27.48;12.35;;;;;;;-0.25;100.00;100626.47;6092597;23;20019;-80
2023/12/01 04:17:52;;;;;;;43.43;14.50;;;;;;;-0.26;100.00;100622.34;6093166;23;20031;-80
2023/12/01 04:20:27;;;;;;;32.40;13.32;;;;;;;-0.26;100.00;100630.19;6118461;23;20090;-81
2023/12/01 04:23:00;;;;;;;39.63;13.73;;;;;;;-0.26;100.00;100630.19;6092763;23;20025;-80
2023/12/01 04:25:27;;;;;;;30.73;12.75;;;;;;;-0.26;100.00;100636.19;6118541;23;20019;-80
2023/12/01 04:27:55;;;;;;;33.60;12.70;;;;;;;-0.26;100.00;100632.81;6093847;23;20026;-80
2023/12/01 04:30:23;;;;;;;29.63;12.77;;;;;;;-0.26;100.00;100636.19;6069017;23;20043;-80
2023/12/01 04:32:55;;;;;;;30.77;13.20;;;;;;;-0.26;100.00;100640.66;6070205;23;20043;-80
2023/12/01 04:35:29;;;;;;;25.60;12.60;;;;;;;-0.24;100.00;100643.66;6119290;23;20022;-80
2023/12/01 04:37:59;;;;;;;34.25;12.20;;;;;;;-0.23;100.00;100642.53;6094192;23;20030;-80
2023/12/01 04:40:27;;;;;;;27.88;11.98;;;;;;;-0.21;100.00;100642.94;6120142;23;20035;-80
2023/12/01 04:42:57;;;;;;;30.13;12.43;;;;;;;-0.20;100.00;100645.19;6096404;23;20015;-80
2023/12/01 04:45:27;;;;;;;30.85;12.23;;;;;;;-0.19;100.00;100643.31;6097773;23;20018;-79
2023/12/01 04:47:55;;;;;;;31.08;13.80;;;;;;;-0.20;100.00;100639.94;6124842;23;20023;-79
2023/12/01 04:50:27;;;;;;;34.78;13.95;;;;;;;-0.19;100.00;100644.06;6099997;23;20037;-79
2023/12/01 04:52:56;;;;;;;;;;;;;;;-0.17;100.00;100652.28;6126004;23;20011;-78
2023/12/01 04:55:28;;;;;;;29.38;11.70;;;;;;;-0.16;100.00;100650.44;6124657;23;19921;-79
2023/12/01 04:57:55;;;;;;;28.73;11.82;;;;;;;-0.15;100.00;100652.69;6100695;23;20850;-79
2023/12/01 05:00:25;;;;;;;30.90;12.30;;;;;;;-0.14;100.00;100646.31;6127228;23;20010;-79
2023/12/01 05:03:04;;;;;;;29.95;11.90;;;;;;;-0.14;100.00;100645.56;6126153;23;20010;-79
2023/12/01 05:05:37;;;;;;;32.70;13.07;;;;;;;-0.14;100.00;100653.44;6099202;23;20017;-79
2023/12/01 05:08:07;;;;;;;28.23;12.52;;;;;;;-0.12;100.00;100654.56;6121269;23;20023;-80
2023/12/01 05:10:35;;;;;;;30.30;11.70;;;;;;;-0.12;100.00;100654.56;6118548;23;20056;-79
2023/12/01 05:13:04;;;;;;;27.50;12.25;;;;;;;-0.10;100.00;100664.66;6095465;23;20015;-79
2023/12/01 05:15:34;;;;;;;28.23;13.52;;;;;;;-0.09;100.00;100655.69;6119694;23;20011;-80
2023/12/01 05:18:05;;;;;;;31.08;12.18;;;;;;;-0.08;100.00;100657.19;6070438;23;20018;-79
2023/12/01 05:20:35;;;;;;;32.63;12.93;;;;;;;-0.09;100.00;100672.16;6070313;23;20071;-79
2023/12/01 05:23:09;;;;;;;27.33;12.05;;;;;;;-0.09;100.00;100674.00;6094127;23;20030;-80
2023/12/01 05:25:39;;;;;;;31.60;12.50;;;;;;;-0.09;100.00;100671.41;6094790;23;20011;-79
2023/12/01 05:28:07;;;;;;;27.10;11.65;;;;;;;-0.08;100.00;100676.25;6094273;23;20007;-80
2023/12/01 05:30:38;;;;;;;24.77;11.43;;;;;;;-0.05;100.00;100680.00;6119535;23;20025;-80
2023/12/01 05:33:05;;;;;;;25.10;12.10;;;;;;;-0.03;100.00;100681.16;6070783;23;20029;-79
2023/12/01 05:35:37;;;;;;;28.55;11.75;;;;;;;-0.02;100.00;100676.66;6093950;23;20006;-79
2023/12/01 05:38:05;;;;;;;26.90;12.80;;;;;;;-0.04;100.00;100676.28;6118397;23;20061;-79
2023/12/01 05:40:37;;;;;;;29.65;12.63;;;;;;;-0.05;100.00;100674.78;6118222;23;20019;-79
2023/12/01 05:43:05;;;;;;;31.58;13.30;;;;;;;-0.03;100.00;100680.41;6092650;23;20023;-80
2023/12/01 05:45:34;;;;;;;31.63;12.02;;;;;;;-0.03;100.00;100675.16;6092742;23;20089;-79
2023/12/01 05:48:02;;;;;;;30.98;12.23;;;;;;;-0.02;100.00;100685.25;6068914;23;20026;-79
2023/12/01 05:50:31;;;;;;;27.92;12.43;;;;;;;-0.01;100.00;100683.41;6093811;23;20412;-78
2023/12/01 05:53:00;;;;;;;26.05;12.32;;;;;;;0.00;100.00;100688.22;6118661;23;20015;-79
2023/12/01 05:55:32;;;;;;;27.10;12.40;;;;;;;0.01;100.00;100686.38;6092905;23;20011;-79
2023/12/01 05:58:01;;;;;;;26.00;12.40;;;;;;;0.02;100.00;100689.75;6118378;23;20011;-79
2023/12/01 06:00:29;;;;;;;25.13;12.63;;;;;;;0.03;100.00;100696.47;6093811;23;20018;-79
2023/12/01 06:02:58;;;;;;;25.60;12.10;;;;;;;0.01;100.00;100707.31;6095315;23;20026;-79
2023/12/01 06:05:26;;;;;;;28.33;12.88;;;;;;;-0.03;100.00;100704.69;6117898;23;20015;-79
2023/12/01 06:07:55;;;;;;;26.88;12.02;;;;;;;-0.03;100.00;100701.34;6116950;23;20007;-79
2023/12/01 06:10:23;;;;;;;27.05;12.15;;;;;;;-0.04;100.00;100710.31;6116034;23;20021;-79
2023/12/01 06:12:50;;;;;;;30.08;12.45;;;;;;;-0.06;100.00;100710.66;6116295;23;20019;-79
2023/12/01 06:15:18;;;;;;;30.40;12.82;;;;;;;-0.09;100.00;100708.78;6088181;23;20102;-78
2023/12/01 06:17:47;;;;;;;28.63;12.50;;;;;;;-0.08;100.00;100717.38;6110166;23;20803;-79
2023/12/01 06:20:20;;;;;;;29.95;12.45;;;;;;;-0.10;100.00;100714.38;6114700;23;20066;-81
2023/12/01 06:22:51;;;;;;;26.60;11.82;;;;;;;-0.08;100.00;100714.78;6084487;23;20019;-79
2023/12/01 06:25:19;;;;;;;33.83;12.93;;;;;;;-0.09;100.00;100721.13;6109720;23;20050;-78
2023/12/01 06:27:46;;;;;;;27.23;12.88;;;;;;;-0.07;100.00;100726.75;6112242;23;20019;-79
2023/12/01 06:30:15;;;;;;;34.13;12.02;;;;;;;-0.09;100.00;100727.09;6088138;23;20026;-79
2023/12/01 06:32:43;;;;;;;27.40;12.10;;;;;;;-0.10;100.00;100732.69;6109785;23;20437;-80
2023/12/01 06:35:14;;;;;;;24.23;12.02;;;;;;;-0.11;100.00;100731.94;6111091;23;20014;-79
2023/12/01 06:37:43;;;;;;;29.30;13.15;;;;;;;-0.12;100.00;100735.69;6085408;23;20707;-79
2023/12/01 06:40:17;;;;;;;24.27;11.20;;;;;;;-0.11;100.00;100741.66;6086631;23;20063;-80
2023/12/01 06:42:51;;;;;;;35.03;13.07;;;;;;;-0.11;100.00;100733.81;6085833;23;20019;-80
2023/12/01 06:45:23;;;;;;;31.87;12.07;;;;;;;-0.11;100.00;100739.81;6110038;23;20043;-79
2023/12/01 06:47:58;;;;;;;25.67;10.80;;;;;;;-0.12;100.00;100746.16;6114777;23;20310;-79
2023/12/01 06:50:26;;;;;;;30.23;11.30;;;;;;;-0.11;100.00;100745.03;6065857;23;20023;-79
2023/12/01 06:52:53;;;;;;;28.33;11.52;;;;;;;-0.11;100.00;100742.41;6115971;23;20022;-79
2023/12/01 06:55:20;;;;;;;30.88;11.57;;;;;;;-0.12;100.00;100740.91;6067061;23;20030;-79
2023/12/01 06:57:49;;;;;;;26.13;9.93;;;;;;;-0.14;100.00;100740.53;6117042;23;20034;-80
2023/12/01 07:00:29;;;;;;;28.98;10.55;;;;;;;-0.15;100.00;100738.28;6114571;23;20055;-80
2023/12/01 07:03:09;;;;;;;23.40;10.60;;;;;;;-0.15;100.00;100746.88;6116795;23;20022;-79
2023/12/01 07:05:38;;;;;;;27.17;10.43;;;;;;;-0.12;100.00;100750.63;6092439;23;20015;-79
2023/12/01 07:08:11;;;;;;;30.65;10.40;;;;;;;-0.14;100.00;100756.22;6118099;23;20055;-80
2023/12/01 07:10:38;;;;;;;19.90;9.23;;;;;;;-0.17;100.00;100766.69;6126740;23;20022;-80
2023/12/01 07:13:05;;;;;;;24.02;9.50;;;;;;;-0.19;100.00;100761.81;6126806;23;20377;-79
2023/12/01 07:15:32;;;;;;;30.02;9.95;;;;;;;-0.19;100.00;100766.28;6112953;23;20022;-78
2023/12/01 07:17:58;;;;;;;26.42;9.98;;;;;;;-0.20;100.00;100764.78;6111063;23;20772;-79
2023/12/01 07:20:25;;;;;;;23.23;10.75;;;;;;;-0.20;100.00;100776.00;6082936;23;20083;-79
2023/12/01 07:22:53;;;;;;;25.58;9.95;;;;;;;-0.18;99.91;100773.03;6110722;23;20015;-79
2023/12/01 07:25:23;;;;;;;20.08;9.35;;;;;;;-0.19;99.02;100774.13;6111044;23;20019;-78
2023/12/01 07:28:02;;;;;;;18.27;8.45;;;;;;;-0.24;98.46;100782.31;6110984;23;20019;-79
2023/12/01 07:30:29;;;;;;;23.27;9.30;;;;;;;-0.24;98.04;100766.63;6083890;23;20017;-79
2023/12/01 07:32:59;;;;;;;21.52;8.63;;;;;;;-0.25;97.36;100776.34;6107263;23;20023;-78
2023/12/01 07:35:25;;;;;;;26.42;9.82;;;;;;;-0.26;96.94;100785.31;6107371;23;20019;-77
2023/12/01 07:37:52;;;;;;;23.42;9.05;;;;;;;-0.28;96.12;100782.31;6106878;23;20022;-78
2023/12/01 07:40:21;;;;;;;18.55;8.65;;;;;;;-0.30;95.90;100794.25;6107660;23;20132;-76
2023/12/01 07:42:49;;;;;;;20.00;8.80;;;;;;;-0.33;95.81;100790.50;6080297;23;20107;-77
2023/12/01 07:45:20;;;;;;;21.42;9.43;;;;;;;-0.31;95.94;100803.19;6107890;23;20087;-78
2023/12/01 07:47:49;;;;;;;18.65;8.85;;;;;;;-0.30;95.78;100807.31;6107252;23;20019;-79
2023/12/01 07:50:17;;;;;;;24.63;9.50;;;;;;;-0.31;95.50;100801.34;6109048;23;20014;-78
2023/12/01 07:52:45;;;;;;;14.93;8.20;;;;;;;-0.34;95.26;100802.81;6110969;23;20460;-77
2023/12/01 07:55:12;;;;;;;20.58;8.10;;;;;;;-0.36;94.92;100810.28;6108557;23;20467;-79
2023/12/01 07:57:40;;;;;;;17.20;8.02;;;;;;;-0.37;94.79;100814.00;6060382;23;20115;-79
2023/12/01 08:00:14;;;;;;;21.25;9.38;;;;;;;-0.36;94.71;100812.88;6087225;23;20039;-79
2023/12/01 08:02:47;;;;;;;19.08;8.90;;;;;;;-0.34;95.14;100810.66;6081923;23;20025;-79
2023/12/01 08:05:17;;;;;;;23.88;7.82;;;;;;;-0.35;95.12;100809.16;6105175;23;20014;-79
2023/12/01 08:07:52;;;;;;;17.95;8.27;;;;;;;-0.32;95.07;100814.78;6105302;23;20037;-79
2023/12/01 08:10:22;;;;;;;19.30;8.13;;;;;;;-0.32;94.70;100810.31;6106468;23;20015;-79
2023/12/01 08:12:51;;;;;;;16.17;7.70;;;;;;;-0.29;95.03;100814.06;6108235;23;20097;-79
2023/12/01 08:15:18;;;;;;;21.63;8.48;;;;;;;-0.27;95.01;100809.22;6108184;23;20046;-79
2023/12/01 08:17:53;;;;;;;21.70;8.68;;;;;;;-0.29;94.55;100821.91;6107092;23;20022;-79
2023/12/01 08:20:20;;;;;;;21.88;8.52;;;;;;;-0.31;94.20;100822.28;6058242;23;20050;-80
2023/12/01 08:22:47;;;;;;;21.90;8.27;;;;;;;-0.34;94.09;100823.00;6112324;23;20015;-79
2023/12/01 08:25:15;;;;;;;19.38;7.57;;;;;;;-0.37;93.85;100814.00;6087402;23;20007;-80
2023/12/01 08:27:44;;;;;;;21.77;7.30;;;;;;;-0.35;94.05;100813.63;6062781;23;20026;-80
2023/12/01 08:30:10;;;;;;;20.77;7.95;;;;;;;-0.34;93.85;100821.13;6082120;23;20467;-80
2023/12/01 08:32:48;;;;;;;18.45;8.30;;;;;;;-0.31;93.88;100821.50;6108314;23;20014;-80
2023/12/01 08:35:15;;;;;;;18.80;7.53;;;;;;;-0.37;93.63;100821.84;6081948;23;20138;-80
2023/12/01 08:37:43;;;;;;;18.13;8.00;;;;;;;-0.34;93.43;100826.34;6082398;23;20481;-80
2023/12/01 08:40:11;;;;;;;18.02;7.60;;;;;;;-0.28;93.48;100826.03;6081671;23;20022;-80
2023/12/01 08:42:42;;;;;;;15.57;7.35;;;;;;;-0.24;92.85;100830.19;6106646;23;20329;-80
2023/12/01 08:45:10;;;;;;;14.45;7.18;;;;;;;-0.21;92.83;100823.47;6082345;23;20011;-80
2023/12/01 08:47:39;;;;;;;14.77;6.78;;;;;;;-0.19;92.69;100829.84;6107143;23;20018;-80
2023/12/01 08:50:07;;;;;;;14.32;7.45;;;;;;;-0.19;92.32;100837.69;6081306;23;20875;-79
2023/12/01 08:52:37;;;;;;;15.70;7.65;;;;;;;-0.26;92.38;100831.66;6065155;23;20019;-80
2023/12/01 08:55:05;;;;;;;18.38;8.27;;;;;;;-0.26;91.96;100832.41;6088898;23;20079;-80
2023/12/01 08:57:34;;;;;;;18.17;7.47;;;;;;;-0.29;92.18;100830.50;6087431;23;20047;-80
2023/12/01 09:00:01;;;;;;;17.98;7.28;;;;;;;-0.33;92.38;100834.97;6083196;23;20022;-80
2023/12/01 09:02:28;;;;;;;13.95;7.63;;;;;;;-0.32;92.32;100830.47;6111178;23;20034;-80
2023/12/01 09:04:56;;;;;;;14.10;7.00;;;;;;;-0.32;92.17;100836.47;6110116;23;21317;-80
2023/12/01 09:07:22;;;;;;;14.20;7.88;;;;;;;-0.35;92.42;100835.31;6105971;23;20042;-80
2023/12/01 09:09:55;;;;;;;18.42;7.07;;;;;;;-0.42;92.11;100835.28;6080937;23;20019;-80
2023/12/01 09:12:23;;;;;;;16.73;7.15;;;;;;;-0.46;92.12;100837.13;6107216;23;20014;-78
2023/12/01 09:14:50;;;;;;;17.58;7.07;;;;;;;-0.48;91.83;100843.81;6081353;23;20030;-80
2023/12/01 09:17:16;;;;;;;13.40;7.22;;;;;;;-0.47;92.03;100847.94;6106338;23;20035;-80
2023/12/01 09:19:43;;;;;;;19.08;7.75;;;;;;;-0.48;91.91;100849.06;6085034;23;20015;-80
2023/12/01 09:22:10;;;;;;;16.63;6.82;;;;;;;-0.54;91.82;100851.25;6111891;23;20015;-80
2023/12/01 09:24:37;;;;;;;17.95;7.05;;;;;;;-0.54;91.67;100853.84;6055278;23;20042;-78
2023/12/01 09:27:04;;;;;;;16.40;7.30;;;;;;;-0.55;91.68;100847.13;6081756;23;20070;-78
2023/12/01 09:29:30;;;;;;;23.20;7.38;;;;;;;-0.53;91.71;100855.38;6084209;23;20106;-80
2023/12/01 09:31:57;;;;;;;16.63;7.20;;;;;;;-0.53;91.61;100862.47;6082027;23;20052;-80
2023/12/01 09:34:23;;;;;;;18.90;6.97;;;;;;;-0.55;91.14;100865.44;6082579;23;20015;-79
2023/12/01 09:36:51;;;;;;;19.17;7.40;;;;;;;-0.47;91.31;100864.38;6083068;23;20023;-81
2023/12/01 09:39:19;;;;;;;14.75;7.53;;;;;;;-0.39;91.58;100870.41;6057983;23;20034;-80
2023/12/01 09:41:46;;;;;;;15.50;6.55;;;;;;;-0.34;91.75;100868.22;6107887;23;20019;-80
2023/12/01 09:44:13;;;;;;;16.85;6.57;;;;;;;-0.30;91.50;100873.47;6106201;23;20019;-80
2023/12/01 09:46:43;;;;;;;12.77;6.43;;;;;;;-0.23;91.69;100870.91;6058808;23;20027;-82
2023/12/01 09:49:10;;;;;;;13.25;6.95;;;;;;;-0.12;92.01;100871.75;6109384;23;20022;-80
2023/12/01 09:51:37;;;;;;;14.43;7.05;;;;;;;-0.01;91.53;100875.22;6107875;23;20046;-79
2023/12/01 09:54:04;;;;;;;16.05;7.50;;;;;;;0.06;91.36;100879.72;6081415;23;20019;-78
2023/12/01 09:56:31;;;;;;;15.23;6.90;;;;;;;0.06;90.77;100879.72;6086728;23;20123;-81
2023/12/01 09:58:59;;;;;;;16.08;7.15;;;;;;;0.08;90.81;100879.34;6093707;23;20029;-81
2023/12/01 10:01:27;;;;;;;17.42;7.40;;;;;;;0.10;90.77;100879.75;6121167;23;20082;-80
2023/12/01 10:03:54;;;;;;;17.83;7.07;;;;;;;0.09;90.43;100883.47;6112665;23;20050;-81
2023/12/01 10:06:21;;;;;;;13.20;6.03;;;;;;;0.13;90.93;100873.78;6084866;23;20079;-81
2023/12/01 10:08:49;;;;;;;14.75;7.50;;;;;;;0.19;90.60;100875.69;6109488;23;20042;-80
2023/12/01 10:11:21;;;;;;;13.25;6.78;;;;;;;0.20;89.98;100879.06;6107542;23;20007;-80
2023/12/01 10:13:49;;;;;;;18.05;7.03;;;;;;;0.20;89.99;100874.59;6088722;23;20014;-79
2023/12/01 10:16:17;;;;;;;17.73;6.95;;;;;;;0.19;89.67;100875.69;6093681;23;20011;-79
2023/12/01 10:18:56;;;;;;;12.77;6.63;;;;;;;0.13;89.50;100884.25;6111904;23;20019;-80
2023/12/01 10:21:41;;;;;;;11.95;6.82;;;;;;;0.22;89.79;100885.44;6080596;23;20026;-79
2023/12/01 10:24:16;;;;;;;11.45;5.70;;;;;;;0.23;89.40;100873.84;6083412;23;20010;-80
2023/12/01 10:26:47;;;;;;;16.17;6.68;;;;;;;0.23;89.02;100879.09;6109218;23;20013;-81
2023/12/01 10:29:44;;;;;;;17.70;6.40;;;;;;;0.20;89.16;100877.22;6108155;23;20019;-79
2023/12/01 10:32:12;;;;;;;12.50;6.72;;;;;;;0.22;88.98;100880.22;6081149;23;20050;-80
2023/12/01 10:34:46;;;;;;;12.77;6.32;;;;;;;0.22;88.57;100879.47;6082014;23;20460;-79
2023/12/01 10:37:13;;;;;;;11.75;6.10;;;;;;;0.22;88.44;100885.44;6081403;23;20351;-78
2023/12/01 10:39:41;;;;;;;12.25;5.57;;;;;;;0.11;88.42;100889.09;6086773;23;20019;-79
2023/12/01 10:42:09;;;;;;;13.55;5.75;;;;;;;0.17;88.67;100883.16;6092440;23;20075;-79
2023/12/01 10:44:36;;;;;;;12.38;5.70;;;;;;;0.23;88.80;100883.56;6085715;23;20022;-80
2023/12/01 10:47:06;;;;;;;12.68;5.93;;;;;;;0.23;88.12;100889.56;6084783;23;20023;-79
2023/12/01 10:49:35;;;;;;;16.13;6.43;;;;;;;0.14;88.26;100891.75;6103014;23;20071;-77
2023/12/01 10:52:01;;;;;;;14.68;6.53;;;;;;;0.18;88.19;100882.06;6105792;23;20094;-79
2023/12/01 10:54:28;;;;;;;17.73;6.68;;;;;;;0.22;87.94;100882.06;6106872;23;20078;-79
2023/12/01 10:57:35;;;;;;;16.50;6.93;;;;;;;0.25;87.88;100883.97;6055639;23;20413;-79
2023/12/01 11:00:17;;;;;;;14.55;6.25;;;;;;;0.32;87.70;100876.16;6109818;23;20078;-83
2023/12/01 11:02:44;;;;;;;16.45;7.75;;;;;;;0.36;88.31;100879.56;6109026;23;20019;-81
2023/12/01 11:05:11;;;;;;;15.10;6.70;;;;;;;0.37;88.02;100882.91;6084698;23;20011;-80
2023/12/01 11:08:06;;;;;;;12.85;6.88;;;;;;;0.39;88.41;100886.69;6109902;23;20042;-80
2023/12/01 11:10:42;;;;;;;16.60;6.57;;;;;;;0.42;88.02;100890.41;6083798;23;20022;-79
2023/12/01 11:13:40;;;;;;;12.75;6.35;;;;;;;0.48;87.77;100886.31;6111738;23;20046;-80
2023/12/01 11:16:07;;;;;;;13.98;6.25;;;;;;;0.52;87.85;100880.00;6113839;23;20066;-79
2023/12/01 11:18:34;;;;;;;15.00;6.55;;;;;;;0.45;87.58;100881.81;6119308;23;20057;-79